• Join FlightAware (Why Join?)
  • Login
  • US Flag 
01:53AM EDT


 

Airport Tracker/Info


-or-


 

Live Flight TrackerFlight Track Log ✈ AAL963 ✈ 26-Apr-2013 ✈ KDFW - SBGR / GRU

Flight Track Log - Related Links

Times and Time Zones

All times are in EDT time to prevent confusion due to time zone crossing. See the AAL963 flight status page for this flight to view local times or setup timezone preferences in your user account.

Time Position Orientation Groundspeed Altitude Reporting Facility
EDT Latitude Longitude Course Direction KTS MPH feet Rate Location/Type
09:07PM 32.8310 -97.0620 192° South 197 227 2,800  Level FlightAware
09:07PM 32.8050 -97.0680 191° South 222 255 3,300 1,380 Climbing FlightAware
09:08PM 32.7770 -97.0740 190° South 233 268 4,100 1,920 Climbing FlightAware
09:08PM 32.7440 -97.0790 187° South 237 273 5,100 1,800 Climbing FlightAware
09:09PM 32.7160 -97.0830 187° South 248 285 5,800 1,500 Climbing FlightAware
09:09PM 32.6800 -97.0880 187° South 267 307 6,500 1,500 Climbing FlightAware
09:10PM 32.6280 -97.0800 173° South 288 331 7,600 1,680 Climbing FlightAware
09:10PM 32.5930 -97.0560 150° Southeast 295 339 8,500 1,620 Climbing FlightAware
09:11PM 32.5640 -97.0300 143° Southeast 304 350 9,100 1,620 Climbing FlightAware
09:12PM 32.5130 -96.9890 146° Southeast 307 353 10,400 1,680 Climbing FlightAware
09:12PM 32.4630 -96.9510 147° Southeast 322 371 11,500 1,680 Climbing FlightAware
09:13PM 32.4010 -96.9050 148° Southeast 346 398 12,800 1,740 Climbing FlightAware
09:14PM 32.3470 -96.8630 147° Southeast 359 413 14,000 2,040 Climbing FlightAware
09:14PM 32.2850 -96.8180 148° Southeast 358 412 15,700 2,400 Climbing FlightAware
09:15PM 32.2338 -96.7934 158° South 349 402 17,100 2,160 Climbing FlightAware ADS-B
09:16PM 32.1850 -96.7761 163° South 359 413 18,000 1,740 Climbing FlightAware ADS-B
09:16PM 32.1328 -96.7572 163° South 366 421 19,000 1,920 Climbing FlightAware ADS-B
09:17PM 32.0850 -96.7390 162° South 373 429 20,000 1,860 Climbing FlightAware
09:17PM 32.0657 -96.7320 163° South 373 429 20,300 1,560 Climbing FlightAware ADS-B
09:17PM 32.0141 -96.7126 162° South 388 447 21,100 1,560 Climbing FlightAware ADS-B
09:18PM 31.9620 -96.6924 162° South 396 456 21,900 1,680 Climbing FlightAware ADS-B
09:18PM 31.9046 -96.6698 162° South 398 458 22,900 1,860 Climbing FlightAware ADS-B
09:19PM 31.8494 -96.6490 162° South 401 461 23,900 1,980 Climbing FlightAware ADS-B
09:19PM 31.8002 -96.6292 161° South 397 457 24,900 2,100 Climbing FlightAware ADS-B
09:19PM 31.7963 -96.6276 161° South 398 458 25,000 960 Climbing FlightAware ADS-B
09:20PM 31.7461 -96.6066 160° South 410 472 25,400 780 Climbing FlightAware ADS-B
09:20PM 31.7427 -96.6052 161° South 411 473 25,400 1,320 Level FlightAware ADS-B
09:20PM 31.6914 -96.5842 161° South 415 478 26,100 1,320 Climbing FlightAware ADS-B
09:20PM 31.6877 -96.5827 161° South 415 478 26,100 1,140 Level FlightAware ADS-B
09:21PM 31.6344 -96.5612 161° South 423 487 26,700 1,140 Climbing FlightAware ADS-B
09:21PM 31.6307 -96.5596 160° South 423 487 26,700 1,200 Level FlightAware ADS-B
09:21PM 31.5774 -96.5379 161° South 428 493 27,300 1,200 Climbing FlightAware ADS-B
09:21PM 31.5737 -96.5364 161° South 429 494 27,300 960 Level FlightAware ADS-B
09:22PM 31.5195 -96.5144 161° South 434 499 27,800 1,140 Climbing FlightAware ADS-B
09:22PM 31.5157 -96.5128 160° South 435 501 27,900 1,320 Climbing FlightAware ADS-B
09:22PM 31.5033 -96.5073 159° South 437 503 28,000 960 Climbing FlightAware ADS-B
09:22PM 31.4939 -96.5026 157° South 439 505 28,100 1,260 Climbing FlightAware ADS-B
09:22PM 31.4508 -96.4800 156° South 440 506 28,600 1,200 Climbing FlightAware ADS-B
09:22PM 31.4489 -96.4792 160° South 440 506 28,600  Level FlightAware ADS-B
09:23PM 31.4391 -96.4756 163° South 437 503 28,600 840 Level FlightAware ADS-B
09:23PM 31.4352 -96.4743 164° South 437 503 28,700 1,200 Climbing FlightAware ADS-B
09:23PM 31.3802 -96.4581 166° South 440 506 29,200 960 Climbing FlightAware ADS-B
09:23PM 31.3732 -96.4561 166° South 440 506 29,200 1,200 Level FlightAware ADS-B
09:24PM 31.3205 -96.4387 164° South 443 510 29,800 1,140 Climbing FlightAware ADS-B
09:24PM 31.3123 -96.4358 163° South 444 511 29,800 960 Level FlightAware ADS-B
09:24PM 31.2608 -96.4174 163° South 447 514 30,300 960 Climbing FlightAware ADS-B
09:24PM 31.2527 -96.4145 163° South 447 514 30,300 720 Level FlightAware ADS-B
09:24PM 31.2138 -96.4002 163° South 450 518 30,600 1,080 Climbing FlightAware ADS-B
09:24PM 31.2092 -96.3984 161° South 452 520 30,700 840 Climbing FlightAware ADS-B
09:25PM 31.1993 -96.3938 158° South 456 525 30,700 480 Level FlightAware ADS-B
09:25PM 31.1860 -96.3861 154° Southeast 461 531 30,800 1,080 Climbing FlightAware ADS-B
09:25PM 31.1799 -96.3818 149° Southeast 464 534 30,900 600 Climbing FlightAware ADS-B
09:25PM 31.1690 -96.3732 146° Southeast 468 539 30,900 540 Level FlightAware ADS-B
09:25PM 31.1609 -96.3659 142° Southeast 472 543 31,000 840 Climbing FlightAware ADS-B
09:25PM 31.1575 -96.3625 139° Southeast 474 545 31,000 840 Level FlightAware ADS-B
09:25PM 31.1488 -96.3528 136° Southeast 478 550 31,100 720 Climbing FlightAware ADS-B
09:25PM 31.1441 -96.3470 133° Southeast 480 552 31,100 660 Level FlightAware ADS-B
09:25PM 31.1354 -96.3347 130° Southeast 485 558 31,200 540 Climbing FlightAware ADS-B
09:26PM 31.1022 -96.2815 126° Southeast 491 565 31,400 420 Climbing FlightAware ADS-B
09:26PM 31.1011 -96.2798 127° Southeast 491 565 31,400 780 Level FlightAware ADS-B
09:26PM 31.0627 -96.2166 125° Southeast 493 567 31,800 780 Climbing FlightAware ADS-B
09:26PM 31.0616 -96.2146 123° Southeast 493 567 31,800 720 Level FlightAware ADS-B
09:27PM 31.0225 -96.1502 125° Southeast 496 571 32,200 900 Climbing FlightAware ADS-B
09:27PM 30.9821 -96.0841 125° Southeast 498 573 32,700 960 Climbing FlightAware ADS-B
09:27PM 30.9814 -96.0830 127° Southeast 499 574 32,700 600 Level FlightAware ADS-B
09:28PM 30.9410 -96.0174 126° Southeast 503 579 33,000 600 Climbing FlightAware ADS-B
09:28PM 30.9402 -96.0161 126° Southeast 503 579 33,000 720 Level FlightAware ADS-B
09:28PM 30.8994 -95.9501 126° Southeast 504 580 33,400 960 Climbing FlightAware ADS-B
09:28PM 30.8987 -95.9490 127° Southeast 504 580 33,500 720 Climbing FlightAware ADS-B
09:29PM 30.8570 -95.8819 126° Southeast 506 582 33,800 600 Climbing FlightAware ADS-B
09:29PM 30.8153 -95.8149 126° Southeast 509 586 34,100 660 Climbing FlightAware ADS-B
09:30PM 30.7738 -95.7482 126° Southeast 513 590 34,500 660 Climbing FlightAware ADS-B
09:30PM 30.7319 -95.6809 126° Southeast 515 593 34,800 540 Climbing FlightAware ADS-B
09:30PM 30.7298 -95.6775 126° Southeast 514 592 34,800 360 Level FlightAware ADS-B
09:31PM 30.6877 -95.6102 126° Southeast 518 596 35,000 360 Climbing FlightAware ADS-B
09:31PM 30.6855 -95.6066 125° Southeast 518 596 35,000  Level FlightAware ADS-B
09:31PM 30.6449 -95.5416 126° Southeast 518 596 35,000  Level FlightAware ADS-B
09:31PM 30.6433 -95.5391 127° Southeast 518 596 35,000  Level FlightAware ADS-B
09:32PM 30.6021 -95.4733 126° Southeast 518 596 35,000  Level FlightAware ADS-B
09:32PM 30.6002 -95.4704 127° Southeast 518 596 35,000  Level FlightAware ADS-B
09:32PM 30.5591 -95.4047 126° Southeast 518 596 35,000  Level FlightAware ADS-B
09:32PM 30.5555 -95.3989 126° Southeast 518 596 35,000  Level FlightAware ADS-B
09:33PM 30.5161 -95.3362 126° Southeast 518 596 35,000  Level FlightAware ADS-B
09:33PM 30.5119 -95.3294 126° Southeast 518 596 35,000  Level FlightAware ADS-B
09:33PM 30.4697 -95.2625 126° Southeast 517 595 35,000  Level FlightAware ADS-B
09:34PM 30.4275 -95.1952 126° Southeast 517 595 35,000  Level FlightAware ADS-B
09:34PM 30.3838 -95.1262 126° Southeast 517 595 35,000  Level FlightAware ADS-B
09:34PM 30.3818 -95.1230 126° Southeast 517 595 35,000  Level FlightAware ADS-B
09:35PM 30.3403 -95.0577 126° Southeast 517 595 35,000  Level FlightAware ADS-B
09:35PM 30.3382 -95.0544 126° Southeast 517 595 35,000  Level FlightAware ADS-B
09:35PM 30.2980 -94.9908 126° Southeast 517 595 35,000  Level FlightAware ADS-B
09:35PM 30.2946 -94.9855 127° Southeast 517 595 35,000  Level FlightAware ADS-B
09:36PM 30.2553 -94.9235 126° Southeast 517 595 35,000  Level FlightAware ADS-B
09:36PM 30.2516 -94.9175 126° Southeast 518 596 35,000  Level FlightAware ADS-B
09:36PM 30.2095 -94.8514 126° Southeast 517 595 35,000  Level FlightAware ADS-B
09:37PM 30.1669 -94.7845 126° Southeast 517 595 35,000  Level FlightAware ADS-B
09:37PM 30.1655 -94.7822 125° Southeast 517 595 35,000  Level FlightAware ADS-B
09:37PM 30.1231 -94.7159 126° Southeast 516 594 35,000  Level FlightAware ADS-B
09:37PM 30.1204 -94.7116 126° Southeast 517 595 35,000  Level FlightAware ADS-B
09:38PM 30.0812 -94.6502 126° Southeast 516 594 35,000  Level FlightAware ADS-B
09:38PM 30.0781 -94.6453 126° Southeast 516 594 35,000  Level FlightAware ADS-B
09:38PM 30.0379 -94.5825 126° Southeast 516 594 35,000  Level FlightAware ADS-B
09:38PM 30.0342 -94.5767 126° Southeast 516 594 35,000  Level FlightAware ADS-B
09:39PM 29.9947 -94.5151 127° Southeast 516 594 35,000  Level FlightAware ADS-B
09:39PM 29.9913 -94.5097 126° Southeast 515 593 35,000  Level FlightAware ADS-B
09:39PM 29.9518 -94.4483 127° Southeast 515 593 35,000  Level FlightAware ADS-B
09:39PM 29.9480 -94.4426 128° Southeast 514 592 35,000  Level FlightAware ADS-B
09:40PM 29.9077 -94.3797 126° Southeast 513 590 35,000  Level FlightAware ADS-B
09:40PM 29.9053 -94.3760 127° Southeast 513 590 35,000  Level FlightAware ADS-B
09:40PM 29.8648 -94.3133 127° Southeast 513 590 35,000  Level FlightAware ADS-B
09:40PM 29.8627 -94.3100 126° Southeast 513 590 35,000  Level FlightAware ADS-B
09:41PM 29.8222 -94.2472 127° Southeast 513 590 35,000  Level FlightAware ADS-B
09:41PM 29.8195 -94.2431 127° Southeast 513 590 35,000  Level FlightAware ADS-B
09:41PM 29.7796 -94.1813 127° Southeast 511 588 35,000  Level FlightAware ADS-B
09:41PM 29.7771 -94.1773 126° Southeast 512 589 35,000  Level FlightAware ADS-B
09:42PM 29.7374 -94.1162 127° Southeast 510 587 35,000  Level FlightAware ADS-B
09:42PM 29.7340 -94.1109 126° Southeast 510 587 35,000  Level FlightAware ADS-B
09:42PM 29.7163 -94.0840 127° Southeast 509 586 35,000  Level FlightAware ADS-B
09:42PM 29.6993 -94.0609 130° Southeast 507 583 35,000  Level FlightAware ADS-B
09:42PM 29.6954 -94.0562 134° Southeast 507 583 35,000  Level FlightAware ADS-B
09:43PM 29.6631 -94.0202 136° Southeast 503 579 35,000  Level FlightAware ADS-B
09:43PM 29.6415 -93.9996 140° Southeast 505 581 35,000  Level FlightAware ADS-B
09:43PM 29.6087 -93.9704 142° Southeast 500 575 35,000  Level FlightAware ADS-B
09:43PM 29.5860 -93.9508 143° Southeast 499 574 35,000  Level FlightAware ADS-B
09:44PM 29.5532 -93.9228 143° Southeast 500 575 35,000  Level FlightAware ADS-B
09:44PM 29.5261 -93.8997 143° Southeast 500 575 35,000  Level FlightAware ADS-B
09:44PM 29.4976 -93.8752 143° Southeast 500 575 35,000  Level FlightAware ADS-B
09:45PM 29.4384 -93.8245 143° Southeast 500 575 35,000  Level FlightAware ADS-B
09:45PM 29.3816 -93.7761 143° Southeast 500 575 35,000  Level FlightAware ADS-B
09:46PM 29.3218 -93.7254 144° Southeast 500 575 35,000  Level FlightAware ADS-B
09:46PM 29.2634 -93.6759 144° Southeast 501 577 35,000  Level FlightAware ADS-B
09:47PM 29.2075 -93.6285 143° Southeast 501 577 35,000  Level FlightAware ADS-B
09:47PM 29.1508 -93.5806 144° Southeast 500 575 35,000  Level FlightAware ADS-B
09:48PM 29.0868 -93.5265 144° Southeast 500 575 35,000  Level FlightAware ADS-B
09:48PM 29.0301 -93.4787 144° Southeast 501 577 35,000  Level FlightAware ADS-B
09:49PM 28.9662 -93.4249 144° Southeast 502 578 35,000  Level FlightAware ADS-B
09:49PM 28.9101 -93.3777 144° Southeast 503 579 35,000 -120 Level FlightAware ADS-B
09:50PM 28.8669 -93.3411 144° Southeast 502 578 34,900  Descending Houston Center
09:51PM 28.7547 -93.2475 144° Southeast 500 575 35,000  Climbing Houston Center
09:52PM 28.6431 -93.1511 143° Southeast 502 578 34,900 -60 Descending Houston Center
09:53PM 28.5289 -93.0575 144° Southeast 505 581 34,900  Level Houston Center
09:54PM 28.4158 -92.9644 144° Southeast 504 580 35,000  Climbing Houston Center
09:55PM 28.3039 -92.8694 143° Southeast 503 579 35,000 -60 Level Houston Center
09:56PM 28.1897 -92.7767 144° Southeast 505 581 34,900 -60 Descending Houston Center
09:57PM 28.0781 -92.6814 143° Southeast 503 579 34,900  Level Houston Center
09:58PM 27.9639 -92.5889 144° Southeast 504 580 34,900  Level Houston Center
09:59PM 27.8506 -92.4964 144° Southeast 503 579 35,000  Climbing Houston Center
10:00PM 27.7142 -92.3875 145° Southeast 500 575 35,000  Level Houston Center
10:01PM 27.6006 -92.2933 144° Southeast 504 580 35,000  Level Houston Center
10:02PM 27.4867 -92.2022 145° Southeast 504 580 35,000  Level Houston Center
10:03PM 27.3739 -92.1089 144° Southeast 503 579 35,000  Level Houston Center
10:04PM 27.2606 -92.0178 144° Southeast 502 578 35,000  Level Houston Center
10:05PM 27.1469 -91.9278 145° Southeast 501 577 35,000  Level Houston Center
10:06PM 27.0342 -91.8367 144° Southeast 499 574 35,000 -60 Level Houston Center
10:08PM 26.8919 -91.7209 144° Southeast  Level FlightAware Approximate
10:15PM 26.1327 -91.1121 145° Southeast  Level FlightAware Approximate
10:16PM 26.0237 -91.0265 145° Southeast  Level FlightAware Approximate
10:17PM 25.9145 -90.9410 145° Southeast  Level FlightAware Approximate
10:18PM 25.8053 -90.8556 145° Southeast  Level FlightAware Approximate
10:19PM 25.6961 -90.7704 145° Southeast  Level FlightAware Approximate
10:20PM 25.5868 -90.6854 145° Southeast  Level FlightAware Approximate
10:21PM 25.4775 -90.6005 145° Southeast  Level FlightAware Approximate
10:22PM 25.3681 -90.5158 145° Southeast  Level FlightAware Approximate
10:23PM 25.2587 -90.4312 145° Southeast  Level FlightAware Approximate
10:24PM 25.1492 -90.3468 145° Southeast  Level FlightAware Approximate
10:25PM 25.0397 -90.2625 145° Southeast  Level FlightAware Approximate
10:26PM 24.9301 -90.1784 145° Southeast  Level FlightAware Approximate
10:27PM 24.8205 -90.0945 145° Southeast  Level FlightAware Approximate
10:28PM 24.7108 -90.0106 145° Southeast  Level FlightAware Approximate
10:29PM 24.6011 -89.9270 145° Southeast  Level FlightAware Approximate
10:30PM 24.4922 -89.8422 138° Southeast  Level FlightAware Approximate
10:31PM 24.3936 -89.7435 138° Southeast  Level FlightAware Approximate
10:32PM 24.2950 -89.6446 135° Southeast  Level FlightAware Approximate
10:33PM 24.2000 -89.5419 135° Southeast  Level FlightAware Approximate
10:34PM 24.1048 -89.4393 135° Southeast  Level FlightAware Approximate
10:35PM 24.0096 -89.3369 135° Southeast  Level FlightAware Approximate
10:36PM 23.9143 -89.2346 136° Southeast  Level FlightAware Approximate
10:37PM 23.8189 -89.1324 136° Southeast  Level FlightAware Approximate
10:38PM 23.7235 -89.0304 136° Southeast  Level FlightAware Approximate
10:39PM 23.6280 -88.9286 136° Southeast  Level FlightAware Approximate
10:40PM 23.5324 -88.8269 136° Southeast  Level FlightAware Approximate
10:41PM 23.4368 -88.7254 136° Southeast  Level FlightAware Approximate
10:42PM 23.3411 -88.6240 136° Southeast  Level FlightAware Approximate
10:43PM 23.2453 -88.5227 136° Southeast  Level FlightAware Approximate
10:44PM 23.1495 -88.4216 136° Southeast  Level FlightAware Approximate
10:45PM 23.0536 -88.3207 136° Southeast  Level FlightAware Approximate
10:46PM 22.9576 -88.2199 136° Southeast  Level FlightAware Approximate
10:47PM 22.8616 -88.1192 136° Southeast  Level FlightAware Approximate
10:48PM 22.7655 -88.0187 136° Southeast  Level FlightAware Approximate
10:49PM 22.6694 -87.9183 136° Southeast  Level FlightAware Approximate
10:50PM 22.5732 -87.8180 136° Southeast  Level FlightAware Approximate
10:51PM 22.4769 -87.7179 136° Southeast  Level FlightAware Approximate
10:52PM 22.3806 -87.6180 136° Southeast  Level FlightAware Approximate
10:53PM 22.2843 -87.5183 136° Southeast  Level FlightAware Approximate
10:54PM 22.1881 -87.4188 136° Southeast  Level FlightAware Approximate
10:55PM 22.0917 -87.3194 136° Southeast  Level FlightAware Approximate
10:56PM 21.9953 -87.2202 136° Southeast  Level FlightAware Approximate
10:57PM 21.8988 -87.1211 136° Southeast  Level FlightAware Approximate
10:58PM 21.8023 -87.0221 136° Southeast  Level FlightAware Approximate
10:59PM 21.7057 -86.9233 136° Southeast  Level FlightAware Approximate
11:00PM 21.6092 -86.8244 136° Southeast  Level FlightAware Approximate
11:01PM 21.5127 -86.7256 136° Southeast  Level FlightAware Approximate
11:02PM 21.4162 -86.6270 136° Southeast  Level FlightAware Approximate
11:03PM 21.3196 -86.5284 136° Southeast  Level FlightAware Approximate
11:04PM 21.2229 -86.4300 136° Southeast  Level FlightAware Approximate
11:05PM 21.1262 -86.3317 137° Southeast  Level FlightAware Approximate
11:06PM 21.0294 -86.2336 137° Southeast  Level FlightAware Approximate
11:07PM 20.9325 -86.1355 137° Southeast  Level FlightAware Approximate
11:08PM 20.8356 -86.0376 137° Southeast  Level FlightAware Approximate
11:09PM 20.7387 -85.9399 137° Southeast  Level FlightAware Approximate
11:10PM 20.6417 -85.8422 137° Southeast  Level FlightAware Approximate
11:11PM 20.5446 -85.7447 137° Southeast  Level FlightAware Approximate
11:12PM 20.4475 -85.6473 137° Southeast  Level FlightAware Approximate
11:13PM 20.3503 -85.5500 137° Southeast  Level FlightAware Approximate
11:14PM 20.2531 -85.4529 137° Southeast  Level FlightAware Approximate
11:15PM 20.1558 -85.3558 137° Southeast  Level FlightAware Approximate
11:16PM 20.0587 -85.2587 137° Southeast  Level FlightAware Approximate
11:17PM 19.9613 -85.1619 137° Southeast  Level FlightAware Approximate
11:18PM 19.8633 -85.0658 137° Southeast  Level FlightAware Approximate
11:19PM 19.7654 -84.9698 137° Southeast  Level FlightAware Approximate
11:20PM 19.6674 -84.8739 137° Southeast  Level FlightAware Approximate
11:21PM 19.5693 -84.7782 137° Southeast  Level FlightAware Approximate
11:22PM 19.4711 -84.6825 137° Southeast  Level FlightAware Approximate
11:23PM 19.3730 -84.5870 137° Southeast  Level FlightAware Approximate
11:24PM 19.2749 -84.4918 137° Southeast  Level FlightAware Approximate
11:25PM 19.1768 -84.3967 138° Southeast  Level FlightAware Approximate
11:26PM 19.0787 -84.3016 138° Southeast  Level FlightAware Approximate
11:27PM 18.9805 -84.2067 138° Southeast  Level FlightAware Approximate
11:28PM 18.8822 -84.1119 138° Southeast  Level FlightAware Approximate
11:29PM 18.7839 -84.0173 138° Southeast  Level FlightAware Approximate
11:30PM 18.6857 -83.9226 138° Southeast  Level FlightAware Approximate
11:31PM 18.5873 -83.8281 138° Southeast  Level FlightAware Approximate
11:32PM 18.4890 -83.7337 138° Southeast  Level FlightAware Approximate
11:33PM 18.3905 -83.6394 138° Southeast  Level FlightAware Approximate
11:34PM 18.2921 -83.5452 138° Southeast  Level FlightAware Approximate
11:35PM 18.1935 -83.4510 138° Southeast  Level FlightAware Approximate
11:36PM 18.0950 -83.3571 138° Southeast  Level FlightAware Approximate
11:37PM 17.9964 -83.2632 138° Southeast  Level FlightAware Approximate
11:38PM 17.8977 -83.1694 138° Southeast  Level FlightAware Approximate
11:39PM 17.7990 -83.0757 138° Southeast  Level FlightAware Approximate
11:40PM 17.7003 -82.9821 138° Southeast  Level FlightAware Approximate
11:41PM 17.6015 -82.8887 138° Southeast  Level FlightAware Approximate
11:42PM 17.5027 -82.7953 138° Southeast  Level FlightAware Approximate
11:43PM 17.4038 -82.7020 138° Southeast  Level FlightAware Approximate
11:44PM 17.3049 -82.6089 138° Southeast  Level FlightAware Approximate
11:45PM 17.2061 -82.5160 138° Southeast  Level FlightAware Approximate
11:46PM 17.1073 -82.4232 138° Southeast  Level FlightAware Approximate
11:47PM 17.0084 -82.3305 138° Southeast  Level FlightAware Approximate
11:48PM 16.9095 -82.2379 138° Southeast  Level FlightAware Approximate
11:49PM 16.8106 -82.1453 138° Southeast  Level FlightAware Approximate
11:50PM 16.7118 -82.0526 138° Southeast  Level FlightAware Approximate
11:51PM 16.6130 -81.9601 138° Southeast  Level FlightAware Approximate
11:52PM 16.5142 -81.8676 138° Southeast  Level FlightAware Approximate
11:53PM 16.4153 -81.7752 138° Southeast  Level FlightAware Approximate
11:54PM 16.3164 -81.6829 138° Southeast  Level FlightAware Approximate
11:55PM 16.2174 -81.5907 138° Southeast  Level FlightAware Approximate
11:56PM 16.1184 -81.4986 138° Southeast  Level FlightAware Approximate
11:57PM 16.0194 -81.4065 138° Southeast  Level FlightAware Approximate
11:58PM 15.9203 -81.3146 138° Southeast  Level FlightAware Approximate
11:59PM 15.8212 -81.2228 138° Southeast  Level FlightAware Approximate
12:00AM 15.7222 -81.1312 138° Southeast  Level FlightAware Approximate
12:01AM 15.6232 -81.0397 138° Southeast  Level FlightAware Approximate
12:02AM 15.5241 -80.9483 138° Southeast  Level FlightAware Approximate
12:03AM 15.4250 -80.8569 138° Southeast  Level FlightAware Approximate
12:04AM 15.3259 -80.7657 138° Southeast  Level FlightAware Approximate
12:05AM 15.2267 -80.6746 138° Southeast  Level FlightAware Approximate
12:06AM 15.1275 -80.5835 138° Southeast  Level FlightAware Approximate
12:07AM 15.0282 -80.4925 138° Southeast  Level FlightAware Approximate
12:08AM 14.9289 -80.4017 139° Southeast  Level FlightAware Approximate
12:09AM 14.8295 -80.3110 139° Southeast  Level FlightAware Approximate
12:10AM 14.7301 -80.2204 139° Southeast  Level FlightAware Approximate
12:11AM 14.6306 -80.1298 139° Southeast  Level FlightAware Approximate
12:12AM 14.5311 -80.0394 139° Southeast  Level FlightAware Approximate
12:13AM 14.4316 -79.9490 139° Southeast  Level FlightAware Approximate
12:14AM 14.3320 -79.8587 139° Southeast  Level FlightAware Approximate
12:15AM 14.2324 -79.7684 139° Southeast  Level FlightAware Approximate
12:16AM 14.1327 -79.6783 139° Southeast  Level FlightAware Approximate
12:17AM 14.0331 -79.5882 139° Southeast  Level FlightAware Approximate
12:18AM 13.9334 -79.4983 139° Southeast  Level FlightAware Approximate
12:19AM 13.8336 -79.4083 139° Southeast  Level FlightAware Approximate
12:20AM 13.7338 -79.3185 139° Southeast  Level FlightAware Approximate
12:21AM 13.6341 -79.2288 139° Southeast  Level FlightAware Approximate
12:22AM 13.5342 -79.1391 139° Southeast  Level FlightAware Approximate
12:23AM 13.4343 -79.0495 139° Southeast  Level FlightAware Approximate
12:24AM 13.3344 -78.9600 139° Southeast  Level FlightAware Approximate
12:25AM 13.2345 -78.8705 139° Southeast  Level FlightAware Approximate
12:26AM 13.1346 -78.7811 139° Southeast  Level FlightAware Approximate
12:27AM 13.0346 -78.6918 139° Southeast  Level FlightAware Approximate
12:28AM 12.9345 -78.6026 139° Southeast  Level FlightAware Approximate
12:29AM 12.8345 -78.5134 139° Southeast  Level FlightAware Approximate
12:30AM 12.7344 -78.4243 139° Southeast  Level FlightAware Approximate
12:31AM 12.6343 -78.3353 139° Southeast  Level FlightAware Approximate
12:32AM 12.5342 -78.2463 139° Southeast  Level FlightAware Approximate
12:33AM 12.4340 -78.1574 139° Southeast  Level FlightAware Approximate
12:34AM 12.3338 -78.0686 139° Southeast  Level FlightAware Approximate
12:34AM 10.9770 -77.4300 139° Southeast 494 568 33,000  Level FlightAware
12:35AM 12.2336 -77.9799 139° Southeast  Level FlightAware Approximate
12:35AM 10.8860 -77.3490 139° Southeast 488 562 33,000  Level FlightAware
12:36AM 10.8180 -77.2850 137° Southeast 490 564 33,000  Level FlightAware
12:36AM 10.7570 -77.2290 138° Southeast 490 564 33,000  Level FlightAware
12:37AM 10.6970 -77.1700 136° Southeast 491 565 33,000  Level FlightAware
12:38AM 10.6410 -77.1150 136° Southeast 491 565 33,000  Level FlightAware
12:39AM 10.4990 -76.9870 138° Southeast 498 573 33,000  Level FlightAware
12:40AM 10.4150 -76.9100 138° Southeast 498 573 33,000  Level FlightAware
12:40AM 10.3450 -76.8450 138° Southeast 498 573 33,000  Level FlightAware
12:41AM 10.2740 -76.7790 138° Southeast 498 573 33,000  Level FlightAware
12:42AM 10.1970 -76.7080 138° Southeast 499 574 33,000  Level FlightAware
12:42AM 10.1400 -76.6550 138° Southeast 499 574 33,000  Level FlightAware
12:43AM 10.0450 -76.5660 137° Southeast 501 577 33,000  Level FlightAware
12:44AM 9.9700 -76.4970 138° Southeast 499 574 33,000  Level FlightAware
12:47AM 9.7313 -76.2870 139° Southeast  Level Estimated
12:47AM 9.7080 -76.2540 139° Southeast 499 574 33,000  Level FlightAware
12:48AM 9.6180 -76.1710 138° Southeast 497 572 33,000  Level FlightAware
12:49AM 9.5150 -76.0750 137° Southeast 490 564 33,000  Level FlightAware
12:49AM 9.4600 -76.0210 136° Southeast 490 564 33,000  Level FlightAware
12:50AM 9.4040 -75.9670 136° Southeast 490 564 33,000  Level FlightAware
12:51AM 9.3350 -75.8990 136° Southeast 490 564 33,000  Level FlightAware
12:51AM 9.2800 -75.8450 136° Southeast 490 564 33,000  Level FlightAware
12:52AM 9.2240 -75.7900 136° Southeast 490 564 33,000  Level FlightAware
12:53AM 9.1690 -75.7360 136° Southeast 490 564 33,000  Level FlightAware
12:53AM 9.1130 -75.6820 136° Southeast 490 564 33,000  Level FlightAware
12:54AM 9.0580 -75.6280 136° Southeast 490 564 33,000  Level FlightAware
12:55AM 8.9890 -75.5600 136° Southeast 490 564 33,000  Level FlightAware
12:56AM 8.9330 -75.5060 136° Southeast 490 564 33,000  Level FlightAware
12:56AM 8.8780 -75.4510 135° Southeast 490 564 33,000  Level FlightAware
12:57AM 8.8220 -75.3970 136° Southeast 490 564 33,000  Level FlightAware
12:58AM 8.7530 -75.3300 136° Southeast 490 564 33,000  Level FlightAware
01:00AM 8.5804 -75.1800 139° Southeast  Level Estimated
01:01AM 8.4799 -75.0927 139° Southeast  Level Estimated
01:02AM 8.3793 -75.0055 139° Southeast  Level Estimated
01:03AM 8.2787 -74.9183 139° Southeast  Level Estimated
01:04AM 8.1781 -74.8311 139° Southeast  Level Estimated
01:05AM 8.0774 -74.7440 139° Southeast  Level Estimated
01:06AM 7.9768 -74.6569 139° Southeast  Level Estimated
01:07AM 7.8761 -74.5698 139° Southeast  Level Estimated
01:08AM 7.7754 -74.4829 139° Southeast  Level Estimated
01:09AM 7.6747 -74.3959 139° Southeast  Level Estimated
01:10AM 7.5740 -74.3090 139° Southeast  Level Estimated
01:11AM 7.4732 -74.2221 139° Southeast  Level Estimated
01:12AM 7.3725 -74.1353 139° Southeast  Level Estimated
01:13AM 7.2717 -74.0485 139° Southeast  Level Estimated
01:14AM 7.1709 -73.9618 140° Southeast  Level Estimated
01:15AM 7.0701 -73.8751 140° Southeast  Level Estimated
01:16AM 6.9693 -73.7884 140° Southeast  Level Estimated
01:17AM 6.8684 -73.7017 140° Southeast  Level Estimated
01:18AM 6.7676 -73.6151 140° Southeast  Level Estimated
01:19AM 6.6667 -73.5286 140° Southeast  Level Estimated
01:20AM 6.5658 -73.4420 140° Southeast  Level Estimated
01:21AM 6.4649 -73.3556 140° Southeast  Level Estimated
01:22AM 6.3640 -73.2691 140° Southeast  Level Estimated
01:23AM 6.2631 -73.1827 140° Southeast  Level Estimated
01:24AM 6.1621 -73.0963 140° Southeast  Level Estimated
01:25AM 6.0611 -73.0099 140° Southeast  Level Estimated
01:26AM 5.9602 -72.9236 140° Southeast  Level Estimated
01:27AM 5.8592 -72.8373 140° Southeast  Level Estimated
01:28AM 5.7582 -72.7510 140° Southeast  Level Estimated
01:29AM 5.6572 -72.6648 140° Southeast  Level Estimated
01:30AM 5.5561 -72.5786 140° Southeast  Level Estimated
01:31AM 5.4551 -72.4924 140° Southeast  Level Estimated
01:32AM 5.3541 -72.4063 140° Southeast  Level Estimated
01:33AM 5.2530 -72.3202 140° Southeast  Level Estimated
01:34AM 5.1519 -72.2341 140° Southeast  Level Estimated
01:35AM 5.0508 -72.1480 140° Southeast  Level Estimated
01:36AM 4.9497 -72.0620 140° Southeast  Level Estimated
01:37AM 4.8486 -71.9760 140° Southeast  Level Estimated
01:38AM 4.7475 -71.8900 140° Southeast  Level Estimated
01:39AM 4.6464 -71.8040 140° Southeast  Level Estimated
01:40AM 4.5452 -71.7181 140° Southeast  Level Estimated
01:41AM 4.4441 -71.6322 140° Southeast  Level Estimated
01:42AM 4.3429 -71.5463 140° Southeast  Level Estimated
01:43AM 4.2417 -71.4605 140° Southeast  Level Estimated
01:44AM 4.1406 -71.3746 140° Southeast  Level Estimated
01:45AM 4.0396 -71.2890 140° Southeast  Level Estimated
01:46AM 3.9385 -71.2033 140° Southeast  Level Estimated
01:47AM 3.8375 -71.1177 140° Southeast  Level Estimated
01:48AM 3.7365 -71.0321 140° Southeast  Level Estimated
01:49AM 3.6354 -70.9465 140° Southeast  Level Estimated
01:50AM 3.5344 -70.8610 140° Southeast  Level Estimated
01:51AM 3.4333 -70.7754 140° Southeast  Level Estimated
01:52AM 3.3323 -70.6899 140° Southeast  Level Estimated
01:53AM 3.2312 -70.6044 140° Southeast  Level Estimated
01:54AM 3.1301 -70.5189 140° Southeast  Level Estimated
01:55AM 3.0290 -70.4334 140° Southeast  Level Estimated
01:56AM 2.9279 -70.3480 140° Southeast  Level Estimated
01:57AM 2.8268 -70.2625 140° Southeast  Level Estimated
01:58AM 2.7257 -70.1771 140° Southeast  Level Estimated
01:59AM 2.6246 -70.0917 140° Southeast  Level Estimated
02:00AM 2.5235 -70.0063 140° Southeast  Level Estimated
02:01AM 2.4223 -69.9209 140° Southeast  Level Estimated
02:02AM 2.3212 -69.8355 140° Southeast  Level Estimated
02:03AM 2.2201 -69.7502 140° Southeast  Level Estimated
02:04AM 2.1189 -69.6648 140° Southeast  Level Estimated
02:05AM 2.0178 -69.5795 140° Southeast  Level Estimated
02:06AM 1.9166 -69.4941 140° Southeast  Level Estimated
02:07AM 1.8155 -69.4088 140° Southeast  Level Estimated
02:08AM 1.7143 -69.3235 140° Southeast  Level Estimated
02:09AM 1.6132 -69.2382 140° Southeast  Level Estimated
02:10AM 1.5120 -69.1529 140° Southeast  Level Estimated
02:11AM 1.4108 -69.0676 140° Southeast  Level Estimated
02:12AM 1.3097 -68.9824 140° Southeast  Level Estimated
02:13AM 1.2087 -68.8972 140° Southeast  Level Estimated
02:14AM 1.1077 -68.8121 140° Southeast  Level Estimated
02:15AM 1.0067 -68.7270 140° Southeast  Level Estimated
02:16AM 0.9057 -68.6419 140° Southeast  Level Estimated
02:17AM 0.8047 -68.5568 140° Southeast  Level Estimated
02:18AM 0.7036 -68.4717 140° Southeast  Level Estimated
02:19AM 0.6026 -68.3866 140° Southeast  Level Estimated
02:20AM 0.5016 -68.3016 140° Southeast  Level Estimated
02:21AM 0.4006 -68.2165 140° Southeast  Level Estimated
02:22AM 0.2996 -68.1314 140° Southeast  Level Estimated
02:23AM 0.1986 -68.0463 140° Southeast  Level Estimated
02:24AM 0.0976 -67.9612 140° Southeast  Level Estimated
02:25AM -0.0034 -67.8762 140° Southeast  Level Estimated
02:26AM -0.1044 -67.7911 140° Southeast  Level Estimated
02:27AM -0.2054 -67.7060 140° Southeast  Level Estimated
02:28AM -0.3065 -67.6209 140° Southeast  Level Estimated
02:29AM -0.4075 -67.5358 140° Southeast  Level Estimated
02:30AM -0.5085 -67.4508 140° Southeast  Level Estimated
02:31AM -0.6095 -67.3657 140° Southeast  Level Estimated
02:32AM -0.7105 -67.2806 140° Southeast  Level Estimated
02:33AM -0.8115 -67.1955 140° Southeast  Level Estimated
02:34AM -0.9125 -67.1104 140° Southeast  Level Estimated
02:35AM -1.0135 -67.0253 140° Southeast  Level Estimated
02:36AM -1.1145 -66.9402 140° Southeast  Level Estimated
02:37AM -1.2155 -66.8551 140° Southeast  Level Estimated
02:38AM -1.3165 -66.7699 140° Southeast  Level Estimated
02:39AM -1.4175 -66.6848 140° Southeast  Level Estimated
02:40AM -1.5185 -66.5997 140° Southeast  Level Estimated
02:41AM -1.6195 -66.5145 140° Southeast  Level Estimated
02:42AM -1.7205 -66.4294 140° Southeast  Level Estimated
02:43AM -1.8214 -66.3442 140° Southeast  Level Estimated
02:44AM -1.9224 -66.2591 140° Southeast  Level Estimated
02:45AM -2.0234 -66.1739 140° Southeast  Level Estimated
02:46AM -2.1243 -66.0887 140° Southeast  Level Estimated
02:47AM -2.2253 -66.0035 140° Southeast  Level Estimated
02:48AM -2.3263 -65.9183 140° Southeast  Level Estimated
02:49AM -2.4272 -65.8331 140° Southeast  Level Estimated
02:50AM -2.5282 -65.7478 140° Southeast  Level Estimated
02:51AM -2.6291 -65.6626 140° Southeast  Level Estimated
02:52AM -2.7300 -65.5773 140° Southeast  Level Estimated
02:53AM -2.8310 -65.4920 140° Southeast  Level Estimated
02:54AM -2.9319 -65.4067 140° Southeast  Level Estimated
02:55AM -3.0328 -65.3214 140° Southeast  Level Estimated
02:56AM -3.1337 -65.2361 140° Southeast  Level Estimated
02:57AM -3.2346 -65.1508 140° Southeast  Level Estimated
02:58AM -3.3355 -65.0654 140° Southeast  Level Estimated
02:59AM -3.4364 -64.9800 140° Southeast  Level Estimated
03:00AM -3.5373 -64.8946 140° Southeast  Level Estimated
03:01AM -3.6381 -64.8092 140° Southeast  Level Estimated
03:02AM -3.7390 -64.7238 140° Southeast  Level Estimated
03:03AM -3.8399 -64.6384 140° Southeast  Level Estimated
03:04AM -3.9407 -64.5529 140° Southeast  Level Estimated
03:05AM -4.0416 -64.4674 140° Southeast  Level Estimated
03:06AM -4.1424 -64.3819 140° Southeast  Level Estimated
03:07AM -4.2432 -64.2963 140° Southeast  Level Estimated
03:08AM -4.3440 -64.2108 140° Southeast  Level Estimated
03:09AM -4.4448 -64.1252 140° Southeast  Level Estimated
03:10AM -4.5456 -64.0396 140° Southeast  Level Estimated
03:11AM -4.6464 -63.9540 140° Southeast  Level Estimated
03:12AM -4.7471 -63.8683 140° Southeast  Level Estimated
03:13AM -4.8479 -63.7826 140° Southeast  Level Estimated
03:14AM -4.9487 -63.6969 140° Southeast  Level Estimated
03:15AM -5.0494 -63.6112 140° Southeast  Level Estimated
03:16AM -5.1501 -63.5255 140° Southeast  Level Estimated
03:17AM -5.2509 -63.4397 140° Southeast  Level Estimated
03:18AM -5.3516 -63.3539 140° Southeast  Level Estimated
03:19AM -5.4522 -63.2680 140° Southeast  Level Estimated
03:20AM -5.5529 -63.1822 140° Southeast  Level Estimated
03:21AM -5.6536 -63.0963 140° Southeast  Level Estimated
03:22AM -5.7542 -63.0103 140° Southeast  Level Estimated
03:23AM -5.8549 -62.9244 140° Southeast  Level Estimated
03:24AM -5.9555 -62.8384 140° Southeast  Level Estimated
03:25AM -6.0561 -62.7524 140° Southeast  Level Estimated
03:26AM -6.1565 -62.6665 140° Southeast  Level Estimated
03:27AM -6.2570 -62.5805 140° Southeast  Level Estimated
03:28AM -6.3574 -62.4946 140° Southeast  Level Estimated
03:29AM -6.4577 -62.4086 140° Southeast  Level Estimated
03:30AM -6.5581 -62.3225 140° Southeast  Level Estimated
03:31AM -6.6585 -62.2365 140° Southeast  Level Estimated
03:32AM -6.7588 -62.1504 140° Southeast  Level Estimated
03:33AM -6.8591 -62.0642 140° Southeast  Level Estimated
03:34AM -6.9594 -61.9781 140° Southeast  Level Estimated
03:35AM -7.0597 -61.8918 140° Southeast  Level Estimated
03:36AM -7.1600 -61.8056 140° Southeast  Level Estimated
03:37AM -7.2603 -61.7193 140° Southeast  Level Estimated
03:38AM -7.3605 -61.6330 140° Southeast  Level Estimated
03:39AM -7.4607 -61.5466 139° Southeast  Level Estimated
03:40AM -7.5609 -61.4602 139° Southeast  Level Estimated
03:41AM -7.6611 -61.3738 139° Southeast  Level Estimated
03:42AM -7.7613 -61.2873 139° Southeast  Level Estimated
03:43AM -7.8615 -61.2008 139° Southeast  Level Estimated
03:44AM -7.9616 -61.1142 139° Southeast  Level Estimated
03:45AM -8.0617 -61.0276 139° Southeast  Level Estimated
03:46AM -8.1618 -60.9409 139° Southeast  Level Estimated
03:47AM -8.2619 -60.8543 139° Southeast  Level Estimated
03:48AM -8.3620 -60.7675 139° Southeast  Level Estimated
03:49AM -8.4620 -60.6807 139° Southeast  Level Estimated
03:50AM -8.5621 -60.5939 139° Southeast  Level Estimated
03:51AM -8.6621 -60.5070 139° Southeast  Level Estimated
03:52AM -8.7621 -60.4201 139° Southeast  Level Estimated
03:53AM -8.8620 -60.3331 139° Southeast  Level Estimated
03:54AM -8.9620 -60.2461 139° Southeast  Level Estimated
03:55AM -9.0619 -60.1591 139° Southeast  Level Estimated
03:56AM -9.1618 -60.0719 139° Southeast  Level Estimated
03:57AM -9.2617 -59.9848 139° Southeast  Level Estimated
03:58AM -9.3616 -59.8976 139° Southeast  Level Estimated
03:59AM -9.4614 -59.8103 139° Southeast  Level Estimated
04:00AM -9.5613 -59.7230 139° Southeast  Level Estimated
04:01AM -9.6611 -59.6357 139° Southeast  Level Estimated
04:02AM -9.7608 -59.5482 139° Southeast  Level Estimated
04:03AM -9.8606 -59.4608 139° Southeast  Level Estimated
04:04AM -9.9604 -59.3732 139° Southeast  Level Estimated
04:05AM -10.0601 -59.2857 139° Southeast  Level Estimated
04:06AM -10.1597 -59.1981 139° Southeast  Level Estimated
04:07AM -10.2594 -59.1104 139° Southeast  Level Estimated
04:08AM -10.3591 -59.0226 139° Southeast  Level Estimated
04:09AM -10.4587 -58.9348 139° Southeast  Level Estimated
04:10AM -10.5583 -58.8470 139° Southeast  Level Estimated
04:11AM -10.6579 -58.7591 139° Southeast  Level Estimated
04:12AM -10.7574 -58.6711 139° Southeast  Level Estimated
04:13AM -10.8569 -58.5831 139° Southeast  Level Estimated
04:14AM -10.9564 -58.4950 139° Southeast  Level Estimated
04:15AM -11.0559 -58.4069 139° Southeast  Level Estimated
04:16AM -11.1553 -58.3187 139° Southeast  Level Estimated
04:17AM -11.2548 -58.2304 139° Southeast  Level Estimated
04:18AM -11.3541 -58.1421 139° Southeast  Level Estimated
04:19AM -11.4535 -58.0537 139° Southeast  Level Estimated
04:20AM -11.5529 -57.9653 139° Southeast  Level Estimated
04:21AM -11.6524 -57.8766 139° Southeast  Level Estimated
04:22AM -11.7518 -57.7879 139° Southeast  Level Estimated
04:23AM -11.8512 -57.6991 139° Southeast  Level Estimated
04:24AM -11.9507 -57.6102 139° Southeast  Level Estimated
04:25AM -12.0500 -57.5213 139° Southeast  Level Estimated
04:26AM -12.1494 -57.4323 139° Southeast  Level Estimated
04:27AM -12.2487 -57.3433 139° Southeast  Level Estimated
04:28AM -12.3480 -57.2542 139° Southeast  Level Estimated
04:29AM -12.4473 -57.1650 139° Southeast  Level Estimated
04:30AM -12.5465 -57.0757 139° Southeast  Level Estimated
04:31AM -12.6457 -56.9864 139° Southeast  Level Estimated
04:32AM -12.7449 -56.8970 139° Southeast  Level Estimated
04:33AM -12.8441 -56.8075 139° Southeast  Level Estimated
04:34AM -12.9432 -56.7180 139° Southeast  Level Estimated
04:35AM -13.0423 -56.6284 139° Southeast  Level Estimated
04:36AM -13.1413 -56.5387 139° Southeast  Level Estimated
04:37AM -13.2404 -56.4489 139° Southeast  Level Estimated
04:38AM -13.3393 -56.3591 139° Southeast  Level Estimated
04:39AM -13.4383 -56.2692 139° Southeast  Level Estimated
04:40AM -13.5372 -56.1792 139° Southeast  Level Estimated
04:41AM -13.6361 -56.0892 139° Southeast  Level Estimated
04:42AM -13.7350 -55.9991 138° Southeast  Level Estimated
04:43AM -13.8338 -55.9089 138° Southeast  Level Estimated
04:44AM -13.9326 -55.8186 138° Southeast  Level Estimated
04:45AM -14.0314 -55.7282 138° Southeast  Level Estimated
04:46AM -14.1301 -55.6378 138° Southeast  Level Estimated
04:47AM -14.2288 -55.5473 138° Southeast  Level Estimated
04:48AM -14.3275 -55.4567 138° Southeast  Level Estimated
04:49AM -14.4261 -55.3661 138° Southeast  Level Estimated
04:50AM -14.5247 -55.2753 138° Southeast  Level Estimated
04:51AM -14.6233 -55.1845 138° Southeast  Level Estimated
04:52AM -14.7218 -55.0936 138° Southeast  Level Estimated
04:53AM -14.8203 -55.0026 138° Southeast  Level Estimated
04:54AM -14.9188 -54.9115 138° Southeast  Level Estimated
04:55AM -15.0172 -54.8203 138° Southeast  Level Estimated
04:56AM -15.1156 -54.7291 138° Southeast  Level Estimated
04:57AM -15.2139 -54.6378 138° Southeast  Level Estimated
04:58AM -15.3122 -54.5463 138° Southeast  Level Estimated
04:59AM -15.4105 -54.4548 138° Southeast  Level Estimated
05:00AM -15.5087 -54.3633 138° Southeast  Level Estimated
05:01AM -15.6069 -54.2716 138° Southeast  Level Estimated
05:02AM -15.7051 -54.1798 138° Southeast  Level Estimated
05:03AM -15.8032 -54.0880 138° Southeast  Level Estimated
05:04AM -15.9013 -53.9960 138° Southeast  Level Estimated
05:05AM -15.9993 -53.9040 138° Southeast  Level Estimated
05:06AM -16.0973 -53.8119 138° Southeast  Level Estimated
05:07AM -16.1953 -53.7197 138° Southeast  Level Estimated
05:08AM -16.2932 -53.6274 138° Southeast  Level Estimated
05:09AM -16.3911 -53.5350 138° Southeast  Level Estimated
05:10AM -16.4889 -53.4425 138° Southeast  Level Estimated
05:11AM -16.5867 -53.3499 138° Southeast  Level Estimated
05:12AM -16.6845 -53.2573 138° Southeast  Level Estimated
05:13AM -16.7822 -53.1645 138° Southeast  Level Estimated
05:14AM -16.8799 -53.0716 138° Southeast  Level Estimated
05:15AM -16.9775 -52.9787 138° Southeast  Level Estimated
05:16AM -17.0751 -52.8856 138° Southeast  Level Estimated
05:17AM -17.1727 -52.7924 138° Southeast  Level Estimated
05:18AM -17.2702 -52.6992 138° Southeast  Level Estimated
05:19AM -17.3677 -52.6059 138° Southeast  Level Estimated
05:20AM -17.4651 -52.5124 138° Southeast  Level Estimated
05:21AM -17.5625 -52.4188 138° Southeast  Level Estimated
05:22AM -17.6598 -52.3252 137° Southeast  Level Estimated
05:23AM -17.7571 -52.2314 137° Southeast  Level Estimated
05:24AM -17.8543 -52.1376 137° Southeast  Level Estimated
05:25AM -17.9515 -52.0436 137° Southeast  Level Estimated
05:26AM -18.0487 -51.9496 137° Southeast  Level Estimated
05:27AM -18.1458 -51.8554 137° Southeast  Level Estimated
05:28AM -18.2429 -51.7612 137° Southeast  Level Estimated
05:29AM -18.3399 -51.6668 137° Southeast  Level Estimated
05:30AM -18.4369 -51.5723 137° Southeast  Level Estimated
05:31AM -18.5338 -51.4777 137° Southeast  Level Estimated
05:32AM -18.6307 -51.3830 137° Southeast  Level Estimated
05:33AM -18.7275 -51.2882 137° Southeast  Level Estimated
05:33AM -19.3080 -50.3420 137° Southeast 511 588 37,000  Level FlightAware
05:34AM -18.8243 -51.1933 137° Southeast  Level Estimated
05:34AM -19.3730 -50.2720 135° Southeast 511 588 37,000  Level FlightAware
05:35AM -19.4570 -50.1860 136° Southeast 508 585 37,000  Level FlightAware
05:35AM -19.5370 -50.0900 131° Southeast 506 582 37,000  Level FlightAware
05:36AM -19.5990 -50.0180 132° Southeast 505 581 37,000  Level FlightAware
05:37AM -19.6640 -49.9470 134° Southeast 506 582 37,000  Level FlightAware
05:38AM -19.7330 -49.8720 134° Southeast 506 582 37,000  Level FlightAware
05:38AM -19.8010 -49.7980 134° Southeast 506 582 37,000  Level FlightAware
05:39AM -19.8680 -49.7250 134° Southeast 506 582 37,000  Level FlightAware
05:40AM -19.9390 -49.6460 134° Southeast 505 581 37,000  Level FlightAware
05:40AM -19.9970 -49.5830 134° Southeast 505 581 37,000  Level FlightAware
05:41AM -20.0670 -49.5050 134° Southeast 505 581 37,000  Level FlightAware
05:42AM -20.1180 -49.4490 134° Southeast 505 581 37,000  Level FlightAware
05:42AM -20.1970 -49.3610 134° Southeast 504 580 37,000  Level FlightAware
05:43AM -20.2680 -49.2830 134° Southeast 505 581 37,000  Level FlightAware
05:44AM -20.3370 -49.2060 134° Southeast 505 581 37,000  Level FlightAware
05:44AM -20.4120 -49.1230 134° Southeast 505 581 37,000  Level FlightAware
05:45AM -20.4820 -49.0440 133° Southeast 504 580 37,000  Level FlightAware
05:46AM -20.5410 -48.9790 134° Southeast 505 581 37,000  Level FlightAware
05:47AM -20.6120 -48.8990 133° Southeast 505 581 37,000  Level FlightAware
05:47AM -20.6700 -48.8350 134° Southeast 505 581 37,000  Level FlightAware
05:48AM -20.7350 -48.7620 134° Southeast 505 581 37,000  Level FlightAware
05:49AM -20.8020 -48.6870 134° Southeast 505 581 37,000  Level FlightAware
05:50AM -20.9060 -48.5700 134° Southeast 504 580 37,000  Level FlightAware
05:50AM -20.9700 -48.4980 134° Southeast 502 578 37,000  Level FlightAware
05:51AM -21.0410 -48.4180 134° Southeast 502 578 37,000  Level FlightAware
05:52AM -21.1050 -48.3460 134° Southeast 500 575 37,000  Level FlightAware
05:52AM -21.1700 -48.2730 134° Southeast 500 575 37,000  Level FlightAware
05:53AM -21.2400 -48.1930 133° Southeast 498 573 37,000  Level FlightAware
05:54AM -21.2910 -48.1360 134° Southeast 497 572 37,000  Level FlightAware
05:54AM -21.3620 -48.0550 133° Southeast 494 568 37,000  Level FlightAware
05:55AM -21.4410 -47.9660 134° Southeast 495 570 37,000  Level FlightAware
05:56AM -21.5060 -47.8920 133° Southeast 495 570 37,000  Level FlightAware
05:57AM -21.5780 -47.8100 133° Southeast 494 568 37,000  Level FlightAware
05:57AM -21.6410 -47.7380 133° Southeast 494 568 37,000 -960 Level FlightAware
05:58AM -21.7100 -47.6590 133° Southeast 507 583 35,700 -2,160 Descending FlightAware
05:59AM -21.7730 -47.5870 133° Southeast 503 579 34,000 -2,340 Descending FlightAware
05:59AM -21.8370 -47.5130 133° Southeast 491 565 32,600 -2,100 Descending FlightAware
06:00AM -21.9080 -47.4330 134° Southeast 476 548 31,100 -1,980 Descending FlightAware
06:01AM -21.9640 -47.3700 134° Southeast 463 533 29,800 -1,680 Descending FlightAware
06:02AM -22.0470 -47.3140 148° Southeast 444 511 28,800 -1,200 Descending FlightAware
06:02AM -22.1170 -47.2830 158° South 433 498 28,100 -1,380 Descending FlightAware
06:03AM -22.1890 -47.2550 160° South 424 488 27,100 -1,800 Descending FlightAware
06:04AM -22.2760 -47.2200 160° South 411 473 25,600 -1,800 Descending FlightAware
06:04AM -22.3450 -47.1920 159° South 413 475 24,400 -1,860 Descending FlightAware
06:05AM -22.4280 -47.1580 159° South 399 459 23,000 -1,860 Descending FlightAware
06:06AM -22.4960 -47.1300 159° South 395 455 21,800 -1,800 Descending FlightAware
06:06AM -22.5670 -47.1020 160° South 396 456 20,600 -1,860 Descending FlightAware
06:07AM -22.6440 -47.0700 159° South 383 441 19,200 -1,860 Descending FlightAware
06:08AM -22.7100 -47.0420 159° South 383 441 18,000 -1,800 Descending FlightAware
06:08AM -22.7760 -47.0140 159° South 376 433 16,800 -1,800 Descending FlightAware
06:09AM -22.8480 -46.9840 159° South 361 415 15,500 -1,740 Descending FlightAware
06:10AM -22.9030 -46.9610 159° South 366 421 14,400 -1,860 Descending FlightAware
06:11AM -22.9730 -46.9310 158° South 351 404 12,900 -1,920 Descending FlightAware
06:11AM -23.0310 -46.9070 159° South 313 360 11,700 -1,860 Descending FlightAware
06:12AM -23.0820 -46.8860 159° South 278 320 10,300 -1,920 Descending FlightAware
06:13AM -23.1350 -46.8630 158° South 297 342 9,000 -1,560 Descending FlightAware
06:13AM -23.1500 -46.8570 160° South 292 336 9,000 -360 Level FlightAware
06:13AM -23.1820 -46.8430 158° South 291 335 8,800 -900 Descending FlightAware
06:14AM -23.2180 -46.8260 157° South 289 333 8,200 -1,320 Descending FlightAware
06:14AM -23.2610 -46.7990 150° Southeast 287 330 7,400 -1,320 Descending FlightAware
06:15AM -23.2890 -46.7820 151° Southeast 283 326 6,900 -1,200 Descending FlightAware
06:15AM -23.3180 -46.7660 153° Southeast 282 325 6,400 -1,200 Descending FlightAware
06:16AM -23.3550 -46.7450 152° Southeast 276 318 5,700 -1,200 Descending FlightAware
06:16AM -23.3790 -46.7310 152° Southeast 273 314 5,300 -720 Descending FlightAware
06:16AM -23.3970 -46.7210 153° Southeast 262 302 5,300 -240 Level FlightAware
06:17AM -23.4280 -46.7030 152° Southeast 236 272 5,100 -480 Descending FlightAware
06:17AM -23.4480 -46.6880 145° Southeast 216 249 4,900 -780 Descending FlightAware
06:18AM -23.4570 -46.6710 120° Southeast 206 237 4,600 -480 Descending FlightAware
06:18AM -23.4690 -46.6450 117° Southeast 187 215 4,500 -120 Descending FlightAware
06:19AM -23.4730 -46.6200 100° East 186 214 4,500 -360 Level FlightAware
06:19AM -23.4670 -46.5930 76° East 173 199 4,200 -780 Descending FlightAware
06:19AM -23.4620 -46.5750 73° East 150 173 3,800 -780 Descending FlightAware
06:20AM -23.4570 -46.5540 75° East 144 166 3,500 -720 Descending FlightAware
06:20AM -23.4520 -46.5350 74° East 139 160 3,100 -780 Descending FlightAware
06:21AM -23.4440 -46.5080 72° East 139 160 2,700 -720 Descending FlightAware